sensor_id;sensor_type;location;lat;lon;timestamp;pressure;altitude;pressure_sealevel;temperature;humidity
13709;BME280;54933;51.908;7.730;2023-05-08T00:00:28;101443.00;;;22.32;75.04
13709;BME280;54933;51.908;7.730;2023-05-08T00:02:53;101438.59;;;22.31;74.58
13709;BME280;54933;51.908;7.730;2023-05-08T00:05:18;101442.38;;;22.30;74.34
13709;BME280;54933;51.908;7.730;2023-05-08T00:07:44;101437.97;;;22.29;74.55
13709;BME280;54933;51.908;7.730;2023-05-08T00:10:09;101430.69;;;22.29;74.33
13709;BME280;54933;51.908;7.730;2023-05-08T00:12:35;101439.66;;;22.30;74.61
13709;BME280;54933;51.908;7.730;2023-05-08T00:15:02;101435.28;;;22.29;74.70
13709;BME280;54933;51.908;7.730;2023-05-08T00:17:27;101431.53;;;22.30;74.98
13709;BME280;54933;51.908;7.730;2023-05-08T00:19:53;101442.38;;;22.30;74.89
13709;BME280;54933;51.908;7.730;2023-05-08T00:22:18;101438.59;;;22.31;75.02
13709;BME280;54933;51.908;7.730;2023-05-08T00:24:44;101438.59;;;22.31;74.60
13709;BME280;54933;51.908;7.730;2023-05-08T00:27:09;101433.19;;;22.31;74.82
13709;BME280;54933;51.908;7.730;2023-05-08T00:29:34;101437.59;;;22.32;74.44
13709;BME280;54933;51.908;7.730;2023-05-08T00:32:00;101441.94;;;22.33;74.69
13709;BME280;54933;51.908;7.730;2023-05-08T00:34:25;101441.94;;;22.33;74.79
13709;BME280;54933;51.908;7.730;2023-05-08T00:36:50;101432.78;;;22.34;74.77
13709;BME280;54933;51.908;7.730;2023-05-08T00:39:16;101432.78;;;22.34;74.97
13709;BME280;54933;51.908;7.730;2023-05-08T00:41:41;101433.63;;;22.34;74.68
13709;BME280;54933;51.908;7.730;2023-05-08T00:44:07;101430.06;;;22.34;74.76
13709;BME280;54933;51.908;7.730;2023-05-08T00:46:32;101426.34;;;22.35;74.70
13709;BME280;54933;51.908;7.730;2023-05-08T00:48:58;101426.34;;;22.35;74.61
13709;BME280;54933;51.908;7.730;2023-05-08T00:51:24;101426.34;;;22.35;74.66
13709;BME280;54933;51.908;7.730;2023-05-08T00:53:49;101421.50;;;22.37;74.82
13709;BME280;54933;51.908;7.730;2023-05-08T00:56:15;101419.88;;;22.36;74.68
13709;BME280;54933;51.908;7.730;2023-05-08T00:58:43;101425.28;;;22.36;74.65
13709;BME280;54933;51.908;7.730;2023-05-08T01:01:09;101421.50;;;22.37;74.51
13709;BME280;54933;51.908;7.730;2023-05-08T01:03:35;101423.41;;;22.36;74.45
13709;BME280;54933;51.908;7.730;2023-05-08T01:06:02;101428.63;;;22.38;74.54
13709;BME280;54933;51.908;7.730;2023-05-08T01:08:28;101428.63;;;22.38;74.51
13709;BME280;54933;51.908;7.730;2023-05-08T01:11:15;101426.94;;;22.37;74.60
13709;BME280;54933;51.908;7.730;2023-05-08T01:16:25;101426.75;;;22.38;74.32
13709;BME280;54933;51.908;7.730;2023-05-08T01:19:00;101422.16;;;22.39;74.38
13709;BME280;54933;51.908;7.730;2023-05-08T01:21:37;101424.84;;;22.39;74.39
13709;BME280;54933;51.908;7.730;2023-05-08T01:24:17;101424.84;;;22.39;74.14
13709;BME280;54933;51.908;7.730;2023-05-08T01:32:12;101434.66;;;22.40;74.27
13709;BME280;54933;51.908;7.730;2023-05-08T01:35:06;101431.97;;;22.40;74.45
13709;BME280;54933;51.908;7.730;2023-05-08T01:37:50;101432.78;;;22.40;73.88
13709;BME280;54933;51.908;7.730;2023-05-08T01:41:01;101427.34;;;22.40;74.41
13709;BME280;54933;51.908;7.730;2023-05-08T01:43:49;101427.34;;;22.40;74.12
13709;BME280;54933;51.908;7.730;2023-05-08T01:46:23;101416.53;;;22.40;74.30
13709;BME280;54933;51.908;7.730;2023-05-08T01:48:59;101416.53;;;22.40;73.84
13709;BME280;54933;51.908;7.730;2023-05-08T01:51:30;101416.53;;;22.40;74.27
13709;BME280;54933;51.908;7.730;2023-05-08T01:54:04;101420.06;;;22.41;74.14
13709;BME280;54933;51.908;7.730;2023-05-08T01:56:30;101428.19;;;22.41;74.28
13709;BME280;54933;51.908;7.730;2023-05-08T01:58:57;101428.19;;;22.41;74.01
13709;BME280;54933;51.908;7.730;2023-05-08T02:01:24;101419.84;;;22.42;74.12
13709;BME280;54933;51.908;7.730;2023-05-08T02:03:51;101419.84;;;22.42;74.08
13709;BME280;54933;51.908;7.730;2023-05-08T02:06:19;101424.44;;;22.42;74.02
13709;BME280;54933;51.908;7.730;2023-05-08T02:08:46;101429.63;;;22.43;73.99
13709;BME280;54933;51.908;7.730;2023-05-08T02:11:12;101434.25;;;22.43;73.92
13709;BME280;54933;51.908;7.730;2023-05-08T02:13:39;101432.34;;;22.43;73.99
13709;BME280;54933;51.908;7.730;2023-05-08T02:16:07;101430.47;;;22.44;73.99
13709;BME280;54933;51.908;7.730;2023-05-08T02:18:34;101437.75;;;22.43;74.15
13709;BME280;54933;51.908;7.730;2023-05-08T02:21:04;101433.19;;;22.44;73.94
13709;BME280;54933;51.908;7.730;2023-05-08T02:23:32;101439.44;;;22.44;74.20
13709;BME280;54933;51.908;7.730;2023-05-08T02:25:59;101427.78;;;22.44;73.78
13709;BME280;54933;51.908;7.730;2023-05-08T02:28:26;101436.72;;;22.44;73.92
13709;BME280;54933;51.908;7.730;2023-05-08T02:30:53;101437.56;;;22.45;74.12
13709;BME280;54933;51.908;7.730;2023-05-08T02:33:21;101434.88;;;22.45;73.86
13709;BME280;54933;51.908;7.730;2023-05-08T02:35:48;101432.16;;;22.45;73.91
13709;BME280;54933;51.908;7.730;2023-05-08T02:38:16;101434.03;;;22.44;73.84
13709;BME280;54933;51.908;7.730;2023-05-08T02:40:47;101429.47;;;22.45;74.20
13709;BME280;54933;51.908;7.730;2023-05-08T02:43:13;101430.25;;;22.45;73.63
13709;BME280;54933;51.908;7.730;2023-05-08T02:46:21;101440.28;;;22.45;74.08
13709;BME280;54933;51.908;7.730;2023-05-08T02:48:58;101436.53;;;22.46;73.69
13709;BME280;54933;51.908;7.730;2023-05-08T02:51:28;101434.88;;;22.45;73.67
13709;BME280;54933;51.908;7.730;2023-05-08T02:54:03;101430.25;;;22.45;73.72
13709;BME280;54933;51.908;7.730;2023-05-08T02:56:36;101426.75;;;22.45;74.12
13709;BME280;54933;51.908;7.730;2023-05-08T02:59:44;101429.47;;;22.45;73.81
13709;BME280;54933;51.908;7.730;2023-05-08T03:05:16;101435.69;;;22.45;73.87
13709;BME280;54933;51.908;7.730;2023-05-08T03:07:44;101436.53;;;22.46;73.67
13709;BME280;54933;51.908;7.730;2023-05-08T03:10:14;101434.88;;;22.45;73.97
13709;BME280;54933;51.908;7.730;2023-05-08T03:12:44;101436.53;;;22.46;73.39
13709;BME280;54933;51.908;7.730;2023-05-08T03:15:31;101430.06;;;22.47;73.44
13709;BME280;54933;51.908;7.730;2023-05-08T03:18:01;101425.69;;;22.46;73.54
13709;BME280;54933;51.908;7.730;2023-05-08T03:20:35;101418.63;;;22.45;73.59
13709;BME280;54933;51.908;7.730;2023-05-08T03:23:02;101424.84;;;22.45;73.48
13709;BME280;54933;51.908;7.730;2023-05-08T03:25:29;101428.41;;;22.46;73.53
13709;BME280;54933;51.908;7.730;2023-05-08T03:27:55;101425.69;;;22.46;73.57
13709;BME280;54933;51.908;7.730;2023-05-08T03:30:21;101422.97;;;22.46;73.64
13709;BME280;54933;51.908;7.730;2023-05-08T03:32:48;101420.28;;;22.46;73.48
13709;BME280;54933;51.908;7.730;2023-05-08T03:35:14;101420.28;;;22.46;73.52
13709;BME280;54933;51.908;7.730;2023-05-08T03:37:40;101414.84;;;22.46;73.28
13709;BME280;54933;51.908;7.730;2023-05-08T03:40:07;101416.50;;;22.47;73.20
13709;BME280;54933;51.908;7.730;2023-05-08T03:42:34;101420.28;;;22.46;73.13
13709;BME280;54933;51.908;7.730;2023-05-08T03:45:02;101410.28;;;22.46;73.19
13709;BME280;54933;51.908;7.730;2023-05-08T03:47:28;101410.28;;;22.46;73.25
13709;BME280;54933;51.908;7.730;2023-05-08T03:49:54;101413.81;;;22.47;73.56
13709;BME280;54933;51.908;7.730;2023-05-08T03:52:19;101404.88;;;22.46;73.47
13709;BME280;54933;51.908;7.730;2023-05-08T03:54:44;101409.44;;;22.46;73.53
13709;BME280;54933;51.908;7.730;2023-05-08T03:57:11;101404.03;;;22.46;73.45
13709;BME280;54933;51.908;7.730;2023-05-08T04:00:13;101413.00;;;22.46;73.58
13709;BME280;54933;51.908;7.730;2023-05-08T04:02:52;101412.78;;;22.48;73.26
13709;BME280;54933;51.908;7.730;2023-05-08T04:05:36;101414.00;;;22.45;73.23
13709;BME280;54933;51.908;7.730;2023-05-08T04:10:36;101418.00;;;22.43;73.22
13709;BME280;54933;51.908;7.730;2023-05-08T04:13:11;101419.84;;;22.42;73.25
13709;BME280;54933;51.908;7.730;2023-05-08T04:15:42;101422.56;;;22.42;73.53
13709;BME280;54933;51.908;7.730;2023-05-08T04:18:22;101424.44;;;22.42;73.41
13709;BME280;54933;51.908;7.730;2023-05-08T04:20:49;101421.72;;;22.42;73.23
13709;BME280;54933;51.908;7.730;2023-05-08T04:23:20;101429.84;;;22.42;73.48
13709;BME280;54933;51.908;7.730;2023-05-08T04:25:47;101415.72;;;22.40;73.31
13709;BME280;54933;51.908;7.730;2023-05-08T04:28:14;101430.28;;;22.39;73.06
13709;BME280;54933;51.908;7.730;2023-05-08T04:30:40;101424.22;;;22.37;73.23
13709;BME280;54933;51.908;7.730;2023-05-08T04:33:06;101425.28;;;22.36;73.37
13709;BME280;54933;51.908;7.730;2023-05-08T04:35:32;101436.94;;;22.36;73.58
13709;BME280;54933;51.908;7.730;2023-05-08T04:37:58;101436.94;;;22.36;73.45
13709;BME280;54933;51.908;7.730;2023-05-08T04:40:23;101446.94;;;22.36;73.43
13709;BME280;54933;51.908;7.730;2023-05-08T04:42:49;101451.50;;;22.35;73.24
13709;BME280;54933;51.908;7.730;2023-05-08T04:45:14;101449.03;;;22.34;73.35
13709;BME280;54933;51.908;7.730;2023-05-08T04:47:40;101443.59;;;22.34;73.36
13709;BME280;54933;51.908;7.730;2023-05-08T04:50:05;101444.66;;;22.33;73.24
13709;BME280;54933;51.908;7.730;2023-05-08T04:52:31;101454.44;;;22.34;73.32
13709;BME280;54933;51.908;7.730;2023-05-08T04:54:56;101459.03;;;22.33;73.19
13709;BME280;54933;51.908;7.730;2023-05-08T04:57:21;101457.34;;;22.32;73.24
13709;BME280;54933;51.908;7.730;2023-05-08T04:59:46;101469.03;;;22.33;73.36
13709;BME280;54933;51.908;7.730;2023-05-08T05:02:12;101460.69;;;22.34;73.23
13709;BME280;54933;51.908;7.730;2023-05-08T05:04:37;101476.09;;;22.34;73.39
13709;BME280;54933;51.908;7.730;2023-05-08T05:07:02;101473.19;;;22.35;73.18
13709;BME280;54933;51.908;7.730;2023-05-08T05:09:28;101469.88;;;22.33;73.24
13709;BME280;54933;51.908;7.730;2023-05-08T05:11:53;101476.09;;;22.34;73.20
13709;BME280;54933;51.908;7.730;2023-05-08T05:14:19;101477.78;;;22.35;73.48
13709;BME280;54933;51.908;7.730;2023-05-08T05:16:44;101489.44;;;22.35;73.34
13709;BME280;54933;51.908;7.730;2023-05-08T05:19:09;101490.28;;;22.36;73.46
13709;BME280;54933;51.908;7.730;2023-05-08T05:21:35;101483.19;;;22.35;73.33
13709;BME280;54933;51.908;7.730;2023-05-08T05:24:02;101487.78;;;22.34;73.56
13709;BME280;54933;51.908;7.730;2023-05-08T05:26:28;101484.00;;;22.35;73.30
13709;BME280;54933;51.908;7.730;2023-05-08T05:28:53;101496.31;;;22.12;72.79
13709;BME280;54933;51.908;7.730;2023-05-08T05:31:18;101502.97;;;21.49;69.50
13709;BME280;54933;51.908;7.730;2023-05-08T05:33:43;101495.63;;;21.84;69.54
13709;BME280;54933;51.908;7.730;2023-05-08T05:36:09;101496.91;;;22.01;69.99
13709;BME280;54933;51.908;7.730;2023-05-08T05:38:36;101483.78;;;22.11;70.28
13709;BME280;54933;51.908;7.730;2023-05-08T05:41:01;101486.72;;;22.16;70.77
13709;BME280;54933;51.908;7.730;2023-05-08T05:43:26;101486.13;;;22.20;70.79
13709;BME280;54933;51.908;7.730;2023-05-08T05:45:51;101490.25;;;22.23;71.06
13709;BME280;54933;51.908;7.730;2023-05-08T05:48:17;101484.44;;;22.26;71.25
13709;BME280;54933;51.908;7.730;2023-05-08T05:50:42;101487.78;;;22.28;71.44
13709;BME280;54933;51.908;7.730;2023-05-08T05:53:07;101489.41;;;22.29;71.33
13709;BME280;54933;51.908;7.730;2023-05-08T05:55:33;101485.69;;;22.30;71.74
13709;BME280;54933;51.908;7.730;2023-05-08T05:57:59;101489.03;;;22.32;71.82
13709;BME280;54933;51.908;7.730;2023-05-08T06:00:25;101482.56;;;22.33;71.80
13709;BME280;54933;51.908;7.730;2023-05-08T06:02:50;101491.75;;;22.32;71.64
13709;BME280;54933;51.908;7.730;2023-05-08T06:05:15;101495.47;;;22.31;71.38
13709;BME280;54933;51.908;7.730;2023-05-08T06:07:43;101491.50;;;22.01;70.46
13709;BME280;54933;51.908;7.730;2023-05-08T06:10:09;101494.41;;;21.99;69.26
13709;BME280;54933;51.908;7.730;2023-05-08T06:12:34;101495.66;;;22.10;69.45
13709;BME280;54933;51.908;7.730;2023-05-08T06:14:59;101491.53;;;22.14;69.85
13709;BME280;54933;51.908;7.730;2023-05-08T06:17:25;101487.34;;;22.18;69.90
13709;BME280;54933;51.908;7.730;2023-05-08T06:19:52;101483.63;;;22.19;70.19
13709;BME280;54933;51.908;7.730;2023-05-08T06:22:19;101480.69;;;22.20;70.45
13709;BME280;54933;51.908;7.730;2023-05-08T06:24:49;101492.34;;;22.21;70.52
13709;BME280;54933;51.908;7.730;2023-05-08T06:27:17;101489.41;;;22.22;70.66
13709;BME280;54933;51.908;7.730;2023-05-08T06:29:42;101492.97;;;22.23;70.86
13709;BME280;54933;51.908;7.730;2023-05-08T06:32:07;101490.25;;;22.23;70.95
13709;BME280;54933;51.908;7.730;2023-05-08T06:34:33;101490.06;;;22.24;71.19
13709;BME280;54933;51.908;7.730;2023-05-08T06:36:58;101490.91;;;22.25;71.57
13709;BME280;54933;51.908;7.730;2023-05-08T06:39:23;101497.97;;;22.26;71.43
13709;BME280;54933;51.908;7.730;2023-05-08T06:41:49;101488.81;;;22.27;71.38
13709;BME280;54933;51.908;7.730;2023-05-08T06:44:14;101498.59;;;22.28;71.63
13709;BME280;54933;51.908;7.730;2023-05-08T06:46:40;101494.84;;;22.29;71.37
13709;BME280;54933;51.908;7.730;2023-05-08T06:49:05;101494.84;;;22.29;71.81
13709;BME280;54933;51.908;7.730;2023-05-08T06:51:31;101490.25;;;22.29;71.74
13709;BME280;54933;51.908;7.730;2023-05-08T06:53:57;101490.91;;;22.31;72.09
13709;BME280;54933;51.908;7.730;2023-05-08T06:56:22;101484.63;;;22.31;71.58
13709;BME280;54933;51.908;7.730;2023-05-08T06:58:48;101486.31;;;22.32;72.23
13709;BME280;54933;51.908;7.730;2023-05-08T07:01:14;101485.28;;;22.33;71.90
13709;BME280;54933;51.908;7.730;2023-05-08T07:03:39;101472.59;;;22.33;72.15
13709;BME280;54933;51.908;7.730;2023-05-08T07:06:08;101476.09;;;22.34;72.08
13709;BME280;54933;51.908;7.730;2023-05-08T07:08:35;101468.81;;;22.34;72.12
13709;BME280;54933;51.908;7.730;2023-05-08T07:11:01;101472.38;;;22.35;72.14
13709;BME280;54933;51.908;7.730;2023-05-08T07:13:26;101473.19;;;22.35;72.17
13709;BME280;54933;51.908;7.730;2023-05-08T07:15:52;101471.31;;;22.36;72.25
13709;BME280;54933;51.908;7.730;2023-05-08T07:18:18;101470.25;;;22.37;72.25
13709;BME280;54933;51.908;7.730;2023-05-08T07:20:43;101481.09;;;22.37;72.32
13709;BME280;54933;51.908;7.730;2023-05-08T07:23:08;101471.09;;;22.37;72.12
13709;BME280;54933;51.908;7.730;2023-05-08T07:25:34;101470.25;;;22.37;72.30
13709;BME280;54933;51.908;7.730;2023-05-08T07:28:00;101460.28;;;22.37;72.11
13709;BME280;54933;51.908;7.730;2023-05-08T07:30:25;101471.09;;;22.37;71.93
13709;BME280;54933;51.908;7.730;2023-05-08T07:32:51;101468.19;;;22.39;72.21
13709;BME280;54933;51.908;7.730;2023-05-08T07:35:16;101477.38;;;22.38;72.56
13709;BME280;54933;51.908;7.730;2023-05-08T07:37:42;101469.03;;;22.39;72.15
13709;BME280;54933;51.908;7.730;2023-05-08T07:40:07;101476.31;;;22.39;72.17
13709;BME280;54933;51.908;7.730;2023-05-08T07:42:43;101481.50;;;22.40;72.48
13709;BME280;54933;51.908;7.730;2023-05-08T07:45:10;101486.13;;;22.40;72.63
13709;BME280;54933;51.908;7.730;2023-05-08T07:47:36;101487.78;;;22.41;72.75
13709;BME280;54933;51.908;7.730;2023-05-08T07:50:01;101488.81;;;22.40;72.55
13709;BME280;54933;51.908;7.730;2023-05-08T07:52:27;101490.47;;;22.41;72.51
13709;BME280;54933;51.908;7.730;2023-05-08T07:54:52;101493.19;;;22.41;72.40
13709;BME280;54933;51.908;7.730;2023-05-08T07:57:17;101494.84;;;22.42;72.53
13709;BME280;54933;51.908;7.730;2023-05-08T07:59:42;101496.53;;;22.43;72.60
13709;BME280;54933;51.908;7.730;2023-05-08T08:02:08;101496.53;;;22.43;72.58
13709;BME280;54933;51.908;7.730;2023-05-08T08:04:33;101489.44;;;22.42;72.66
13709;BME280;54933;51.908;7.730;2023-05-08T08:06:58;101494.84;;;22.42;72.45
13709;BME280;54933;51.908;7.730;2023-05-08T08:09:24;101492.56;;;22.39;72.47
13709;BME280;54933;51.908;7.730;2023-05-08T08:11:49;101494.44;;;22.38;72.51
13709;BME280;54933;51.908;7.730;2023-05-08T08:14:15;101493.59;;;22.38;72.65
13709;BME280;54933;51.908;7.730;2023-05-08T08:16:40;101482.16;;;22.36;72.34
13709;BME280;54933;51.908;7.730;2023-05-08T08:19:06;101490.28;;;22.36;72.52
13709;BME280;54933;51.908;7.730;2023-05-08T08:21:32;101494.84;;;22.35;72.41
13709;BME280;54933;51.908;7.730;2023-05-08T08:23:57;101496.53;;;22.36;72.88
13709;BME280;54933;51.908;7.730;2023-05-08T08:26:23;101505.69;;;22.35;72.83
13709;BME280;54933;51.908;7.730;2023-05-08T08:28:49;101498.41;;;22.36;73.12
13709;BME280;54933;51.908;7.730;2023-05-08T08:31:14;101500.03;;;22.37;73.07
13709;BME280;54933;51.908;7.730;2023-05-08T08:33:40;101497.34;;;22.37;72.99
13709;BME280;54933;51.908;7.730;2023-05-08T08:36:11;101497.34;;;22.37;72.86
13709;BME280;54933;51.908;7.730;2023-05-08T08:38:37;101492.75;;;22.37;72.97
13709;BME280;54933;51.908;7.730;2023-05-08T08:41:02;101495.47;;;22.37;73.55
13709;BME280;54933;51.908;7.730;2023-05-08T08:43:28;101499.88;;;22.38;73.26
13709;BME280;54933;51.908;7.730;2023-05-08T08:45:53;101497.97;;;22.39;73.39
13709;BME280;54933;51.908;7.730;2023-05-08T08:48:19;101501.53;;;22.39;73.22
13709;BME280;54933;51.908;7.730;2023-05-08T08:50:46;101502.38;;;22.40;73.27
13709;BME280;54933;51.908;7.730;2023-05-08T08:53:26;101509.44;;;22.41;73.23
13709;BME280;54933;51.908;7.730;2023-05-08T08:55:54;101505.06;;;22.40;73.31
13709;BME280;54933;51.908;7.730;2023-05-08T08:58:30;101500.25;;;22.42;73.30
13709;BME280;54933;51.908;7.730;2023-05-08T09:00:58;101505.69;;;22.42;73.52
13709;BME280;54933;51.908;7.730;2023-05-08T09:03:25;101496.53;;;22.43;73.71
13709;BME280;54933;51.908;7.730;2023-05-08T09:05:51;101506.50;;;22.42;73.30
13709;BME280;54933;51.908;7.730;2023-05-08T09:08:17;101503.59;;;22.44;73.24
13709;BME280;54933;51.908;7.730;2023-05-08T09:10:42;101503.59;;;22.44;73.46
13709;BME280;54933;51.908;7.730;2023-05-08T09:13:08;101509.00;;;22.44;73.55
13709;BME280;54933;51.908;7.730;2023-05-08T09:15:33;101509.00;;;22.44;73.44
13709;BME280;54933;51.908;7.730;2023-05-08T09:18:00;101505.69;;;22.42;73.31
13709;BME280;54933;51.908;7.730;2023-05-08T09:20:27;101508.59;;;22.40;73.31
13709;BME280;54933;51.908;7.730;2023-05-08T09:22:53;101504.03;;;22.41;73.16
13709;BME280;54933;51.908;7.730;2023-05-08T09:25:18;101499.66;;;22.40;73.30
13709;BME280;54933;51.908;7.730;2023-05-08T09:27:44;101500.69;;;22.39;73.41
13709;BME280;54933;51.908;7.730;2023-05-08T09:30:11;101499.66;;;22.40;73.38
13709;BME280;54933;51.908;7.730;2023-05-08T09:32:38;101505.06;;;22.40;73.64
13709;BME280;54933;51.908;7.730;2023-05-08T09:35:05;101497.75;;;22.40;73.41
13709;BME280;54933;51.908;7.730;2023-05-08T09:37:31;101497.75;;;22.40;73.36
13709;BME280;54933;51.908;7.730;2023-05-08T09:40:18;101506.72;;;22.41;73.94
13709;BME280;54933;51.908;7.730;2023-05-08T09:42:45;101505.69;;;22.42;73.68
13709;BME280;54933;51.908;7.730;2023-05-08T09:45:28;101499.44;;;22.41;73.84
13709;BME280;54933;51.908;7.730;2023-05-08T09:47:54;101504.88;;;22.41;73.52
13709;BME280;54933;51.908;7.730;2023-05-08T09:50:19;101501.94;;;22.43;74.02
13709;BME280;54933;51.908;7.730;2023-05-08T09:52:46;101512.78;;;22.43;73.81
13709;BME280;54933;51.908;7.730;2023-05-08T09:55:12;101507.34;;;22.43;74.14
13709;BME280;54933;51.908;7.730;2023-05-08T09:57:39;101510.69;;;22.45;73.84
13709;BME280;54933;51.908;7.730;2023-05-08T10:00:15;101510.69;;;22.45;73.74
13709;BME280;54933;51.908;7.730;2023-05-08T10:02:41;101508.00;;;22.45;74.01
13709;BME280;54933;51.908;7.730;2023-05-08T10:05:28;101506.94;;;22.46;73.71
13709;BME280;54933;51.908;7.730;2023-05-08T10:07:57;101505.28;;;22.45;73.91
13709;BME280;54933;51.908;7.730;2023-05-08T10:10:27;101494.44;;;22.45;73.75
13709;BME280;54933;51.908;7.730;2023-05-08T10:12:54;101497.75;;;22.47;74.06
13709;BME280;54933;51.908;7.730;2023-05-08T10:15:25;101505.88;;;22.47;74.20
13709;BME280;54933;51.908;7.730;2023-05-08T10:18:02;101499.44;;;22.48;73.85
13709;BME280;54933;51.908;7.730;2023-05-08T10:20:29;101504.88;;;22.48;74.09
13709;BME280;54933;51.908;7.730;2023-05-08T10:22:56;101497.75;;;22.47;74.13
13709;BME280;54933;51.908;7.730;2023-05-08T10:25:22;101503.19;;;22.47;74.28
13709;BME280;54933;51.908;7.730;2023-05-08T10:27:54;101504.88;;;22.48;74.19
13709;BME280;54933;51.908;7.730;2023-05-08T10:30:24;101507.34;;;22.49;74.09
13709;BME280;54933;51.908;7.730;2023-05-08T10:32:51;101510.88;;;22.50;74.26
13709;BME280;54933;51.908;7.730;2023-05-08T10:35:20;101508.16;;;22.50;74.48
13709;BME280;54933;51.908;7.730;2023-05-08T10:37:47;101502.75;;;22.50;74.21
13709;BME280;54933;51.908;7.730;2023-05-08T10:40:13;101507.16;;;22.51;74.50
13709;BME280;54933;51.908;7.730;2023-05-08T10:42:42;101505.47;;;22.50;74.46
13709;BME280;54933;51.908;7.730;2023-05-08T10:45:09;101509.84;;;22.51;74.50
13709;BME280;54933;51.908;7.730;2023-05-08T10:48:07;101506.97;;;22.52;74.40
13709;BME280;54933;51.908;7.730;2023-05-08T10:53:33;101497.16;;;22.51;74.61
13709;BME280;54933;51.908;7.730;2023-05-08T10:56:01;101493.59;;;22.51;74.49
13709;BME280;54933;51.908;7.730;2023-05-08T10:58:33;101494.28;;;22.53;74.59
13709;BME280;54933;51.908;7.730;2023-05-08T11:03:26;101497.78;;;22.53;74.59
13709;BME280;54933;51.908;7.730;2023-05-08T11:05:53;101486.97;;;22.53;74.39
13709;BME280;54933;51.908;7.730;2023-05-08T11:08:19;101490.50;;;22.54;74.72
13709;BME280;54933;51.908;7.730;2023-05-08T11:13:33;101484.88;;;22.55;74.54
13709;BME280;54933;51.908;7.730;2023-05-08T11:15:58;101485.94;;;22.54;74.61
13709;BME280;54933;51.908;7.730;2023-05-08T11:18:24;101482.38;;;22.54;74.66
13709;BME280;54933;51.908;7.730;2023-05-08T11:21:04;101478.63;;;22.55;74.41
13709;BME280;54933;51.908;7.730;2023-05-08T11:23:33;101483.00;;;22.56;74.73
13709;BME280;54933;51.908;7.730;2023-05-08T11:26:00;101479.47;;;22.55;74.48
13709;BME280;54933;51.908;7.730;2023-05-08T11:28:26;101474.03;;;22.55;74.50
13709;BME280;54933;51.908;7.730;2023-05-08T11:30:53;101477.59;;;22.56;74.57
13709;BME280;54933;51.908;7.730;2023-05-08T11:33:25;101474.88;;;22.56;74.34
13709;BME280;54933;51.908;7.730;2023-05-08T11:35:55;101475.69;;;22.56;74.22
13709;BME280;54933;51.908;7.730;2023-05-08T11:38:31;101464.88;;;22.56;74.37
13709;BME280;54933;51.908;7.730;2023-05-08T11:41:02;101465.72;;;22.57;74.57
13709;BME280;54933;51.908;7.730;2023-05-08T11:45:59;101467.38;;;22.58;74.43
13709;BME280;54933;51.908;7.730;2023-05-08T11:48:25;101464.69;;;22.58;74.29
13709;BME280;54933;51.908;7.730;2023-05-08T11:50:50;101464.69;;;22.58;74.46
13709;BME280;54933;51.908;7.730;2023-05-08T11:53:16;101464.69;;;22.58;74.48
13709;BME280;54933;51.908;7.730;2023-05-08T11:55:41;101462.78;;;22.58;74.43
13709;BME280;54933;51.908;7.730;2023-05-08T11:58:14;101468.19;;;22.58;74.35
13709;BME280;54933;51.908;7.730;2023-05-08T12:00:44;101471.75;;;22.59;74.54
13709;BME280;54933;51.908;7.730;2023-05-08T12:03:14;101463.63;;;22.59;74.25
13709;BME280;54933;51.908;7.730;2023-05-08T12:05:40;101463.63;;;22.59;74.50
13709;BME280;54933;51.908;7.730;2023-05-08T12:08:07;101472.59;;;22.59;74.54
13709;BME280;54933;51.908;7.730;2023-05-08T12:13:24;101465.28;;;22.60;74.44
13709;BME280;54933;51.908;7.730;2023-05-08T12:15:52;101465.28;;;22.60;74.35
13709;BME280;54933;51.908;7.730;2023-05-08T12:18:18;101461.53;;;22.61;74.28
13709;BME280;54933;51.908;7.730;2023-05-08T12:20:44;101464.25;;;22.61;74.49
13709;BME280;54933;51.908;7.730;2023-05-08T12:23:10;101465.91;;;22.62;74.43
13709;BME280;54933;51.908;7.730;2023-05-08T12:25:36;101459.84;;;22.60;74.48
13709;BME280;54933;51.908;7.730;2023-05-08T12:28:03;101458.22;;;22.59;74.44
13709;BME280;54933;51.908;7.730;2023-05-08T12:30:30;101459.25;;;22.58;74.40
13709;BME280;54933;51.908;7.730;2023-05-08T12:32:55;101465.72;;;22.57;74.31
13709;BME280;54933;51.908;7.730;2023-05-08T12:35:20;101452.38;;;22.55;74.55
13709;BME280;54933;51.908;7.730;2023-05-08T12:37:46;101451.53;;;22.55;74.60
13709;BME280;54933;51.908;7.730;2023-05-08T12:40:35;101449.88;;;22.54;74.46
13709;BME280;54933;51.908;7.730;2023-05-08T12:43:04;101450.72;;;22.54;74.55
13709;BME280;54933;51.908;7.730;2023-05-08T12:45:31;101452.81;;;22.52;74.43
13709;BME280;54933;51.908;7.730;2023-05-08T12:47:59;101457.34;;;22.52;74.18
13709;BME280;54933;51.908;7.730;2023-05-08T12:50:25;101445.88;;;22.50;74.69
13709;BME280;54933;51.908;7.730;2023-05-08T12:52:50;101442.34;;;22.49;74.65
13709;BME280;54933;51.908;7.730;2023-05-08T12:55:36;101441.50;;;22.49;74.96
13709;BME280;54933;51.908;7.730;2023-05-08T12:58:08;101439.03;;;22.47;74.53
13709;BME280;54933;51.908;7.730;2023-05-08T13:00:35;101440.88;;;22.47;74.38
13709;BME280;54933;51.908;7.730;2023-05-08T13:03:01;101436.53;;;22.46;74.51
13709;BME280;54933;51.908;7.730;2023-05-08T13:05:27;101436.53;;;22.46;74.88
13709;BME280;54933;51.908;7.730;2023-05-08T13:07:58;101441.09;;;22.45;74.73
13709;BME280;54933;51.908;7.730;2023-05-08T13:10:23;101437.56;;;22.45;75.03
13709;BME280;54933;51.908;7.730;2023-05-08T13:12:48;101441.94;;;22.46;74.63
13709;BME280;54933;51.908;7.730;2023-05-08T13:15:14;101445.69;;;22.45;74.72
13709;BME280;54933;51.908;7.730;2023-05-08T13:17:39;101443.81;;;22.45;75.22
13709;BME280;54933;51.908;7.730;2023-05-08T13:20:05;101445.50;;;22.46;74.80
13709;BME280;54933;51.908;7.730;2023-05-08T13:22:30;101442.78;;;22.46;74.63